Airfield :
LOGIN :

Register | Disclaimer

   EN    FR    IT 

 










Legend :    VFR   Marginal VFR   IFR   Intensive IFR   Very Intensive IFR
Visi :
Ceiling :
>= 8 km
>= 3000ft
5 to 8 km
1000 to 3000 ft
1500m to 5 km
500 to 1000 ft
800 to 1500m
200 to 500 ft
< 800m
< 200 ft
Symbols :   Thunderstorms  Fog  Heavy snow  Heavy precipitations  Wind > 20 kt
SIGMETs :     Misc.  Thunderstorms  Icing  Turbulence  Mountain Waves  Volcanic Ashes






- Airport Elevation : 510 ft


LJCE - Cerklje

CURRENT METAR :
  • 071500Z 04006KT 340V090 CAVOK 27/13 Q1017 RMK BLU

EXPIRED METARs :
  • 071430Z 05007KT 020V100 CAVOK 28/14 Q1017 RMK BLU
  • 071400Z 05005KT 020V110 CAVOK 27/14 Q1017 RMK BLU
  • 071330Z 10004KT 060V170 CAVOK 27/14 Q1018 RMK BLU
  • 071300Z 14006KT 100V210 CAVOK 27/14 Q1018 RMK BLU
  • 071230Z 07004KT 010V130 CAVOK 26/14 Q1018 RMK BLU

TAF TAF LJCE
Valid from the 07 at 15:00 until the 08 at 00:00 UTC


071400Z 0715/0800 06005KT CAVOK
PROB30
TEMPO 0715/0718 05012KT



MET'MAP, your aeronautical weather chart ! - Copyright ORBIFLY December 2007 - Disclaimer

ORBIFLY MET'MAP TEAM :

Programming & Development : Alexandra Zaïnal
Original concept : Baudouin d'Aumeries
Technical & hardware support : Manuel Goepfert
Assistance : Marc-Olivier Méhu




SOURCES & CREDITS :

   NOAA